sensor_id;sensor_type;location;lat;lon;timestamp;P1;durP1;ratioP1;P2;durP2;ratioP2
828;SDS011;396;52.558;13.188;2023-02-13T00:02:20;10.03;;;4.40;;
828;SDS011;396;52.558;13.188;2023-02-13T00:04:47;11.50;;;3.80;;
828;SDS011;396;52.558;13.188;2023-02-13T00:07:14;13.40;;;4.43;;
828;SDS011;396;52.558;13.188;2023-02-13T00:09:40;16.73;;;4.33;;
828;SDS011;396;52.558;13.188;2023-02-13T00:12:08;14.10;;;4.67;;
828;SDS011;396;52.558;13.188;2023-02-13T00:14:36;11.77;;;3.20;;
828;SDS011;396;52.558;13.188;2023-02-13T00:17:03;9.80;;;3.53;;
828;SDS011;396;52.558;13.188;2023-02-13T00:19:30;12.47;;;4.40;;
828;SDS011;396;52.558;13.188;2023-02-13T00:21:57;9.03;;;2.87;;
828;SDS011;396;52.558;13.188;2023-02-13T00:24:23;18.17;;;3.10;;
828;SDS011;396;52.558;13.188;2023-02-13T00:26:50;6.97;;;2.07;;
828;SDS011;396;52.558;13.188;2023-02-13T00:29:18;7.40;;;2.13;;
828;SDS011;396;52.558;13.188;2023-02-13T00:31:45;7.13;;;1.97;;
828;SDS011;396;52.558;13.188;2023-02-13T00:34:11;6.53;;;1.43;;
828;SDS011;396;52.558;13.188;2023-02-13T00:36:38;6.20;;;1.70;;
828;SDS011;396;52.558;13.188;2023-02-13T00:39:05;6.40;;;1.53;;
828;SDS011;396;52.558;13.188;2023-02-13T00:41:31;6.20;;;1.43;;
828;SDS011;396;52.558;13.188;2023-02-13T00:43:58;9.60;;;2.10;;
828;SDS011;396;52.558;13.188;2023-02-13T00:46:26;6.23;;;1.70;;
828;SDS011;396;52.558;13.188;2023-02-13T00:48:52;10.70;;;2.13;;
828;SDS011;396;52.558;13.188;2023-02-13T00:51:19;7.57;;;1.83;;
828;SDS011;396;52.558;13.188;2023-02-13T00:53:45;6.03;;;1.63;;
828;SDS011;396;52.558;13.188;2023-02-13T00:56:12;6.13;;;1.33;;
828;SDS011;396;52.558;13.188;2023-02-13T00:58:39;4.80;;;0.83;;
828;SDS011;396;52.558;13.188;2023-02-13T01:01:05;6.57;;;1.80;;
828;SDS011;396;52.558;13.188;2023-02-13T01:03:33;6.77;;;2.17;;
828;SDS011;396;52.558;13.188;2023-02-13T01:06:00;6.20;;;1.73;;
828;SDS011;396;52.558;13.188;2023-02-13T01:08:26;7.13;;;2.00;;
828;SDS011;396;52.558;13.188;2023-02-13T01:10:53;4.80;;;1.00;;
828;SDS011;396;52.558;13.188;2023-02-13T01:13:20;6.73;;;1.43;;
828;SDS011;396;52.558;13.188;2023-02-13T01:15:47;5.67;;;1.50;;
828;SDS011;396;52.558;13.188;2023-02-13T01:18:14;10.53;;;2.20;;
828;SDS011;396;52.558;13.188;2023-02-13T01:20:43;6.90;;;1.13;;
828;SDS011;396;52.558;13.188;2023-02-13T01:23:11;5.67;;;1.33;;
828;SDS011;396;52.558;13.188;2023-02-13T01:25:38;5.73;;;1.40;;
828;SDS011;396;52.558;13.188;2023-02-13T01:28:06;6.70;;;1.60;;
828;SDS011;396;52.558;13.188;2023-02-13T01:30:32;6.43;;;1.53;;
828;SDS011;396;52.558;13.188;2023-02-13T01:32:59;5.90;;;1.60;;
828;SDS011;396;52.558;13.188;2023-02-13T01:35:26;6.10;;;1.20;;
828;SDS011;396;52.558;13.188;2023-02-13T01:37:54;5.37;;;1.00;;
828;SDS011;396;52.558;13.188;2023-02-13T01:40:20;6.03;;;1.07;;
828;SDS011;396;52.558;13.188;2023-02-13T01:42:47;5.90;;;1.33;;
828;SDS011;396;52.558;13.188;2023-02-13T01:45:18;7.33;;;1.57;;
828;SDS011;396;52.558;13.188;2023-02-13T01:47:49;4.93;;;1.20;;
828;SDS011;396;52.558;13.188;2023-02-13T01:50:19;5.20;;;1.20;;
828;SDS011;396;52.558;13.188;2023-02-13T01:52:50;5.97;;;1.53;;
828;SDS011;396;52.558;13.188;2023-02-13T01:55:22;5.93;;;1.60;;
828;SDS011;396;52.558;13.188;2023-02-13T01:57:51;6.63;;;1.63;;
828;SDS011;396;52.558;13.188;2023-02-13T02:00:21;7.10;;;1.60;;
828;SDS011;396;52.558;13.188;2023-02-13T02:02:49;6.23;;;1.67;;
828;SDS011;396;52.558;13.188;2023-02-13T02:05:26;7.17;;;1.73;;
828;SDS011;396;52.558;13.188;2023-02-13T02:07:55;11.10;;;1.97;;
828;SDS011;396;52.558;13.188;2023-02-13T02:10:26;6.90;;;1.60;;
828;SDS011;396;52.558;13.188;2023-02-13T02:12:55;9.20;;;2.10;;
828;SDS011;396;52.558;13.188;2023-02-13T02:15:25;8.23;;;2.47;;
828;SDS011;396;52.558;13.188;2023-02-13T02:17:52;6.80;;;2.00;;
828;SDS011;396;52.558;13.188;2023-02-13T02:20:22;9.73;;;2.60;;
828;SDS011;396;52.558;13.188;2023-02-13T02:23:07;7.50;;;2.13;;
828;SDS011;396;52.558;13.188;2023-02-13T02:26:13;8.50;;;2.33;;
828;SDS011;396;52.558;13.188;2023-02-13T02:35:10;6.93;;;2.37;;
828;SDS011;396;52.558;13.188;2023-02-13T02:37:51;8.50;;;2.50;;
828;SDS011;396;52.558;13.188;2023-02-13T02:40:28;8.40;;;2.47;;
828;SDS011;396;52.558;13.188;2023-02-13T02:43:10;8.70;;;2.50;;
828;SDS011;396;52.558;13.188;2023-02-13T02:45:43;7.57;;;2.63;;
828;SDS011;396;52.558;13.188;2023-02-13T02:48:21;8.17;;;2.37;;
828;SDS011;396;52.558;13.188;2023-02-13T02:51:14;10.03;;;2.97;;
828;SDS011;396;52.558;13.188;2023-02-13T02:53:48;11.57;;;3.87;;
828;SDS011;396;52.558;13.188;2023-02-13T02:56:23;7.30;;;2.50;;
828;SDS011;396;52.558;13.188;2023-02-13T02:58:55;12.97;;;4.20;;
828;SDS011;396;52.558;13.188;2023-02-13T03:01:45;9.73;;;3.20;;
828;SDS011;396;52.558;13.188;2023-02-13T03:04:32;8.60;;;3.17;;
828;SDS011;396;52.558;13.188;2023-02-13T03:07:20;13.20;;;3.47;;
828;SDS011;396;52.558;13.188;2023-02-13T03:09:47;9.03;;;3.33;;
828;SDS011;396;52.558;13.188;2023-02-13T03:12:35;11.33;;;3.47;;
828;SDS011;396;52.558;13.188;2023-02-13T03:15:22;16.73;;;4.43;;
828;SDS011;396;52.558;13.188;2023-02-13T03:17:51;13.20;;;4.97;;
828;SDS011;396;52.558;13.188;2023-02-13T03:20:39;10.87;;;3.43;;
828;SDS011;396;52.558;13.188;2023-02-13T03:23:39;8.87;;;3.70;;
828;SDS011;396;52.558;13.188;2023-02-13T03:26:18;14.00;;;4.93;;
828;SDS011;396;52.558;13.188;2023-02-13T03:29:11;12.67;;;3.43;;
828;SDS011;396;52.558;13.188;2023-02-13T03:32:03;14.17;;;5.20;;
828;SDS011;396;52.558;13.188;2023-02-13T03:34:36;13.90;;;4.87;;
828;SDS011;396;52.558;13.188;2023-02-13T03:37:27;13.17;;;4.20;;
828;SDS011;396;52.558;13.188;2023-02-13T03:40:14;9.30;;;3.50;;
828;SDS011;396;52.558;13.188;2023-02-13T03:42:47;16.00;;;5.20;;
828;SDS011;396;52.558;13.188;2023-02-13T03:45:20;11.80;;;4.00;;
828;SDS011;396;52.558;13.188;2023-02-13T03:48:08;15.73;;;4.67;;
828;SDS011;396;52.558;13.188;2023-02-13T03:50:59;10.10;;;4.10;;
828;SDS011;396;52.558;13.188;2023-02-13T03:53:29;12.60;;;4.50;;
828;SDS011;396;52.558;13.188;2023-02-13T03:55:59;13.13;;;5.30;;
828;SDS011;396;52.558;13.188;2023-02-13T03:58:47;14.80;;;5.00;;
828;SDS011;396;52.558;13.188;2023-02-13T04:01:34;15.83;;;5.33;;
828;SDS011;396;52.558;13.188;2023-02-13T04:04:04;15.57;;;5.83;;
828;SDS011;396;52.558;13.188;2023-02-13T04:06:37;12.00;;;4.77;;
828;SDS011;396;52.558;13.188;2023-02-13T04:09:09;11.70;;;4.87;;
828;SDS011;396;52.558;13.188;2023-02-13T04:11:36;12.40;;;4.53;;
828;SDS011;396;52.558;13.188;2023-02-13T04:14:08;13.80;;;4.70;;
828;SDS011;396;52.558;13.188;2023-02-13T04:16:39;15.23;;;6.10;;
828;SDS011;396;52.558;13.188;2023-02-13T04:19:08;12.47;;;5.47;;
828;SDS011;396;52.558;13.188;2023-02-13T04:21:36;15.03;;;4.83;;
828;SDS011;396;52.558;13.188;2023-02-13T04:24:05;13.33;;;5.10;;
828;SDS011;396;52.558;13.188;2023-02-13T04:26:35;15.87;;;5.50;;
828;SDS011;396;52.558;13.188;2023-02-13T04:29:04;16.87;;;5.83;;
828;SDS011;396;52.558;13.188;2023-02-13T04:31:31;13.97;;;5.13;;
828;SDS011;396;52.558;13.188;2023-02-13T04:33:57;18.63;;;5.20;;
828;SDS011;396;52.558;13.188;2023-02-13T04:36:24;13.17;;;4.30;;
828;SDS011;396;52.558;13.188;2023-02-13T04:38:51;12.50;;;5.03;;
828;SDS011;396;52.558;13.188;2023-02-13T04:41:17;12.00;;;5.03;;
828;SDS011;396;52.558;13.188;2023-02-13T04:43:45;22.53;;;5.07;;
828;SDS011;396;52.558;13.188;2023-02-13T04:46:13;15.00;;;4.60;;
828;SDS011;396;52.558;13.188;2023-02-13T04:48:39;14.50;;;4.43;;
828;SDS011;396;52.558;13.188;2023-02-13T04:51:06;16.60;;;5.70;;
828;SDS011;396;52.558;13.188;2023-02-13T04:53:32;18.33;;;5.20;;
828;SDS011;396;52.558;13.188;2023-02-13T04:55:59;15.20;;;5.20;;
828;SDS011;396;52.558;13.188;2023-02-13T04:58:26;12.90;;;4.00;;
828;SDS011;396;52.558;13.188;2023-02-13T05:00:53;12.17;;;4.50;;
828;SDS011;396;52.558;13.188;2023-02-13T05:03:20;12.20;;;3.60;;
828;SDS011;396;52.558;13.188;2023-02-13T05:05:47;15.70;;;4.73;;
828;SDS011;396;52.558;13.188;2023-02-13T05:08:14;12.30;;;5.07;;
828;SDS011;396;52.558;13.188;2023-02-13T05:10:40;11.70;;;4.43;;
828;SDS011;396;52.558;13.188;2023-02-13T05:13:07;14.80;;;4.40;;
828;SDS011;396;52.558;13.188;2023-02-13T05:15:34;13.90;;;5.27;;
828;SDS011;396;52.558;13.188;2023-02-13T05:18:02;14.00;;;5.10;;
828;SDS011;396;52.558;13.188;2023-02-13T05:20:28;17.33;;;6.00;;
828;SDS011;396;52.558;13.188;2023-02-13T05:22:55;11.37;;;5.47;;
828;SDS011;396;52.558;13.188;2023-02-13T05:25:39;15.23;;;4.93;;
828;SDS011;396;52.558;13.188;2023-02-13T05:28:07;13.10;;;4.43;;
828;SDS011;396;52.558;13.188;2023-02-13T05:30:54;12.60;;;5.00;;
828;SDS011;396;52.558;13.188;2023-02-13T05:33:21;12.80;;;4.83;;
828;SDS011;396;52.558;13.188;2023-02-13T05:35:48;11.20;;;4.60;;
828;SDS011;396;52.558;13.188;2023-02-13T05:38:15;13.13;;;5.10;;
828;SDS011;396;52.558;13.188;2023-02-13T05:40:41;11.70;;;3.60;;
828;SDS011;396;52.558;13.188;2023-02-13T05:43:08;11.40;;;4.03;;
828;SDS011;396;52.558;13.188;2023-02-13T05:45:34;14.33;;;5.07;;
828;SDS011;396;52.558;13.188;2023-02-13T05:48:01;10.43;;;3.77;;
828;SDS011;396;52.558;13.188;2023-02-13T05:50:29;11.30;;;3.93;;
828;SDS011;396;52.558;13.188;2023-02-13T05:52:56;11.67;;;4.23;;
828;SDS011;396;52.558;13.188;2023-02-13T05:55:22;10.07;;;3.83;;
828;SDS011;396;52.558;13.188;2023-02-13T05:57:49;10.53;;;4.50;;
828;SDS011;396;52.558;13.188;2023-02-13T06:00:16;9.60;;;3.70;;
828;SDS011;396;52.558;13.188;2023-02-13T06:02:43;10.23;;;3.93;;
828;SDS011;396;52.558;13.188;2023-02-13T06:05:10;14.03;;;3.83;;
828;SDS011;396;52.558;13.188;2023-02-13T06:07:37;11.50;;;3.90;;
828;SDS011;396;52.558;13.188;2023-02-13T06:10:05;10.63;;;3.97;;
828;SDS011;396;52.558;13.188;2023-02-13T06:12:32;10.57;;;4.10;;
828;SDS011;396;52.558;13.188;2023-02-13T06:14:58;12.77;;;4.13;;
828;SDS011;396;52.558;13.188;2023-02-13T06:17:25;10.83;;;3.90;;
828;SDS011;396;52.558;13.188;2023-02-13T06:19:52;10.93;;;3.43;;
828;SDS011;396;52.558;13.188;2023-02-13T06:22:18;11.93;;;3.47;;
828;SDS011;396;52.558;13.188;2023-02-13T06:24:46;9.43;;;3.60;;
828;SDS011;396;52.558;13.188;2023-02-13T06:27:13;13.23;;;4.00;;
828;SDS011;396;52.558;13.188;2023-02-13T06:29:39;12.93;;;4.37;;
828;SDS011;396;52.558;13.188;2023-02-13T06:32:06;16.33;;;4.37;;
828;SDS011;396;52.558;13.188;2023-02-13T06:34:32;14.50;;;4.43;;
828;SDS011;396;52.558;13.188;2023-02-13T06:36:59;9.00;;;3.60;;
828;SDS011;396;52.558;13.188;2023-02-13T06:39:25;11.83;;;3.97;;
828;SDS011;396;52.558;13.188;2023-02-13T06:41:53;10.53;;;3.73;;
828;SDS011;396;52.558;13.188;2023-02-13T06:44:20;13.10;;;3.87;;
828;SDS011;396;52.558;13.188;2023-02-13T06:46:47;7.77;;;3.50;;
828;SDS011;396;52.558;13.188;2023-02-13T06:49:13;10.50;;;4.20;;
828;SDS011;396;52.558;13.188;2023-02-13T06:51:40;10.40;;;3.57;;
828;SDS011;396;52.558;13.188;2023-02-13T06:54:06;13.07;;;4.07;;
828;SDS011;396;52.558;13.188;2023-02-13T06:56:33;9.67;;;3.27;;
828;SDS011;396;52.558;13.188;2023-02-13T06:59:01;11.20;;;3.70;;
828;SDS011;396;52.558;13.188;2023-02-13T07:01:27;11.27;;;4.20;;
828;SDS011;396;52.558;13.188;2023-02-13T07:03:54;8.73;;;3.17;;
828;SDS011;396;52.558;13.188;2023-02-13T07:06:21;11.80;;;4.13;;
828;SDS011;396;52.558;13.188;2023-02-13T07:08:47;10.00;;;3.47;;
828;SDS011;396;52.558;13.188;2023-02-13T07:11:16;10.97;;;4.33;;
828;SDS011;396;52.558;13.188;2023-02-13T07:13:43;8.10;;;3.30;;
828;SDS011;396;52.558;13.188;2023-02-13T07:16:11;8.00;;;2.83;;
828;SDS011;396;52.558;13.188;2023-02-13T07:18:37;12.03;;;4.40;;
828;SDS011;396;52.558;13.188;2023-02-13T07:21:04;8.83;;;3.47;;
828;SDS011;396;52.558;13.188;2023-02-13T07:23:31;9.90;;;3.43;;
828;SDS011;396;52.558;13.188;2023-02-13T07:25:57;12.93;;;3.93;;
828;SDS011;396;52.558;13.188;2023-02-13T07:28:25;10.13;;;4.27;;
828;SDS011;396;52.558;13.188;2023-02-13T07:30:52;9.73;;;3.10;;
828;SDS011;396;52.558;13.188;2023-02-13T07:33:20;9.60;;;3.97;;
828;SDS011;396;52.558;13.188;2023-02-13T07:35:47;10.17;;;3.83;;
828;SDS011;396;52.558;13.188;2023-02-13T07:38:15;8.13;;;3.43;;
828;SDS011;396;52.558;13.188;2023-02-13T07:40:42;11.37;;;4.00;;
828;SDS011;396;52.558;13.188;2023-02-13T07:43:09;11.83;;;3.90;;
828;SDS011;396;52.558;13.188;2023-02-13T07:45:37;11.17;;;3.80;;
828;SDS011;396;52.558;13.188;2023-02-13T07:48:04;10.77;;;3.67;;
828;SDS011;396;52.558;13.188;2023-02-13T07:50:32;11.00;;;3.20;;
828;SDS011;396;52.558;13.188;2023-02-13T07:52:59;11.30;;;4.37;;
828;SDS011;396;52.558;13.188;2023-02-13T07:55:27;15.70;;;4.10;;
828;SDS011;396;52.558;13.188;2023-02-13T07:57:55;9.13;;;3.87;;
828;SDS011;396;52.558;13.188;2023-02-13T08:00:22;8.67;;;3.13;;
828;SDS011;396;52.558;13.188;2023-02-13T08:02:48;13.10;;;4.03;;
828;SDS011;396;52.558;13.188;2023-02-13T08:05:15;10.80;;;4.20;;
828;SDS011;396;52.558;13.188;2023-02-13T08:07:43;11.07;;;3.70;;
828;SDS011;396;52.558;13.188;2023-02-13T08:10:10;13.97;;;4.20;;
828;SDS011;396;52.558;13.188;2023-02-13T08:12:55;8.87;;;2.90;;
828;SDS011;396;52.558;13.188;2023-02-13T08:15:22;11.40;;;3.97;;
828;SDS011;396;52.558;13.188;2023-02-13T08:17:50;13.40;;;5.20;;
828;SDS011;396;52.558;13.188;2023-02-13T08:20:16;13.47;;;4.40;;
828;SDS011;396;52.558;13.188;2023-02-13T08:22:44;11.63;;;3.90;;
828;SDS011;396;52.558;13.188;2023-02-13T08:25:11;11.23;;;4.33;;
828;SDS011;396;52.558;13.188;2023-02-13T08:27:38;12.37;;;3.70;;
828;SDS011;396;52.558;13.188;2023-02-13T08:30:05;10.30;;;3.57;;
828;SDS011;396;52.558;13.188;2023-02-13T08:32:33;10.97;;;3.63;;
828;SDS011;396;52.558;13.188;2023-02-13T08:34:59;10.30;;;3.53;;
828;SDS011;396;52.558;13.188;2023-02-13T08:37:26;10.17;;;3.33;;
828;SDS011;396;52.558;13.188;2023-02-13T08:39:54;12.70;;;3.97;;
828;SDS011;396;52.558;13.188;2023-02-13T08:42:21;11.17;;;4.10;;
828;SDS011;396;52.558;13.188;2023-02-13T08:44:47;9.90;;;2.97;;
828;SDS011;396;52.558;13.188;2023-02-13T08:47:14;12.67;;;4.27;;
828;SDS011;396;52.558;13.188;2023-02-13T08:49:40;9.30;;;4.43;;
828;SDS011;396;52.558;13.188;2023-02-13T08:52:07;13.50;;;4.33;;
828;SDS011;396;52.558;13.188;2023-02-13T08:54:34;11.40;;;4.13;;
828;SDS011;396;52.558;13.188;2023-02-13T08:57:02;9.63;;;3.97;;
828;SDS011;396;52.558;13.188;2023-02-13T08:59:29;9.47;;;3.47;;
828;SDS011;396;52.558;13.188;2023-02-13T09:01:56;11.43;;;4.63;;
828;SDS011;396;52.558;13.188;2023-02-13T09:04:22;13.27;;;3.87;;
828;SDS011;396;52.558;13.188;2023-02-13T09:06:49;11.20;;;4.33;;
828;SDS011;396;52.558;13.188;2023-02-13T09:09:15;10.37;;;3.10;;
828;SDS011;396;52.558;13.188;2023-02-13T09:11:42;10.93;;;4.43;;
828;SDS011;396;52.558;13.188;2023-02-13T09:14:10;10.67;;;3.70;;
828;SDS011;396;52.558;13.188;2023-02-13T09:16:37;10.57;;;3.97;;
828;SDS011;396;52.558;13.188;2023-02-13T09:19:03;9.40;;;3.90;;
828;SDS011;396;52.558;13.188;2023-02-13T09:21:30;9.17;;;4.23;;
828;SDS011;396;52.558;13.188;2023-02-13T09:23:56;11.67;;;4.27;;
828;SDS011;396;52.558;13.188;2023-02-13T09:26:23;14.53;;;4.63;;
828;SDS011;396;52.558;13.188;2023-02-13T09:28:49;9.57;;;2.73;;
828;SDS011;396;52.558;13.188;2023-02-13T09:31:20;12.43;;;5.03;;
828;SDS011;396;52.558;13.188;2023-02-13T09:33:48;10.97;;;3.90;;
828;SDS011;396;52.558;13.188;2023-02-13T09:36:16;11.30;;;4.20;;
828;SDS011;396;52.558;13.188;2023-02-13T09:38:44;12.83;;;4.40;;
828;SDS011;396;52.558;13.188;2023-02-13T09:41:12;11.80;;;4.33;;
828;SDS011;396;52.558;13.188;2023-02-13T09:43:43;10.53;;;4.40;;
828;SDS011;396;52.558;13.188;2023-02-13T09:46:14;11.10;;;3.90;;
828;SDS011;396;52.558;13.188;2023-02-13T09:48:46;10.70;;;3.97;;
828;SDS011;396;52.558;13.188;2023-02-13T09:51:16;17.30;;;5.20;;
828;SDS011;396;52.558;13.188;2023-02-13T09:53:45;10.87;;;5.10;;
828;SDS011;396;52.558;13.188;2023-02-13T09:56:20;16.17;;;5.20;;
828;SDS011;396;52.558;13.188;2023-02-13T09:58:55;11.57;;;4.10;;
828;SDS011;396;52.558;13.188;2023-02-13T10:01:28;11.00;;;4.00;;
828;SDS011;396;52.558;13.188;2023-02-13T10:04:08;14.83;;;4.63;;
828;SDS011;396;52.558;13.188;2023-02-13T10:06:46;11.57;;;4.70;;
828;SDS011;396;52.558;13.188;2023-02-13T10:09:20;22.30;;;5.87;;
828;SDS011;396;52.558;13.188;2023-02-13T10:11:59;11.27;;;4.67;;
828;SDS011;396;52.558;13.188;2023-02-13T10:14:38;13.67;;;5.00;;
828;SDS011;396;52.558;13.188;2023-02-13T10:17:15;17.30;;;4.40;;
828;SDS011;396;52.558;13.188;2023-02-13T10:19:45;16.10;;;4.70;;
828;SDS011;396;52.558;13.188;2023-02-13T10:22:16;9.07;;;3.43;;
828;SDS011;396;52.558;13.188;2023-02-13T10:24:46;9.70;;;4.50;;
828;SDS011;396;52.558;13.188;2023-02-13T10:27:18;14.50;;;4.60;;
828;SDS011;396;52.558;13.188;2023-02-13T10:29:50;12.30;;;4.60;;
828;SDS011;396;52.558;13.188;2023-02-13T10:32:34;12.03;;;4.53;;
828;SDS011;396;52.558;13.188;2023-02-13T10:35:13;16.37;;;5.43;;
828;SDS011;396;52.558;13.188;2023-02-13T10:37:44;15.70;;;5.30;;
828;SDS011;396;52.558;13.188;2023-02-13T10:40:15;14.03;;;5.57;;
828;SDS011;396;52.558;13.188;2023-02-13T10:42:43;18.00;;;6.33;;
828;SDS011;396;52.558;13.188;2023-02-13T10:45:21;12.93;;;4.83;;
828;SDS011;396;52.558;13.188;2023-02-13T10:48:03;18.03;;;5.40;;
828;SDS011;396;52.558;13.188;2023-02-13T10:50:39;14.97;;;5.43;;
828;SDS011;396;52.558;13.188;2023-02-13T10:53:14;18.23;;;5.23;;
828;SDS011;396;52.558;13.188;2023-02-13T10:55:59;14.27;;;4.70;;
828;SDS011;396;52.558;13.188;2023-02-13T11:01:31;15.73;;;5.47;;
828;SDS011;396;52.558;13.188;2023-02-13T11:04:07;15.07;;;5.13;;
828;SDS011;396;52.558;13.188;2023-02-13T11:06:36;17.10;;;6.43;;
828;SDS011;396;52.558;13.188;2023-02-13T11:09:06;15.03;;;5.80;;
828;SDS011;396;52.558;13.188;2023-02-13T11:11:38;17.37;;;6.00;;
828;SDS011;396;52.558;13.188;2023-02-13T11:14:07;15.87;;;6.20;;
828;SDS011;396;52.558;13.188;2023-02-13T11:16:39;14.87;;;5.87;;
828;SDS011;396;52.558;13.188;2023-02-13T11:19:15;11.80;;;5.47;;
828;SDS011;396;52.558;13.188;2023-02-13T11:21:43;20.53;;;6.60;;
828;SDS011;396;52.558;13.188;2023-02-13T11:24:18;19.70;;;7.00;;
828;SDS011;396;52.558;13.188;2023-02-13T11:26:49;17.47;;;7.17;;
828;SDS011;396;52.558;13.188;2023-02-13T11:29:20;12.60;;;5.30;;
828;SDS011;396;52.558;13.188;2023-02-13T11:31:59;13.90;;;5.93;;
828;SDS011;396;52.558;13.188;2023-02-13T11:34:33;20.47;;;7.03;;
828;SDS011;396;52.558;13.188;2023-02-13T11:37:07;14.57;;;5.70;;
828;SDS011;396;52.558;13.188;2023-02-13T11:39:41;19.80;;;7.40;;
828;SDS011;396;52.558;13.188;2023-02-13T11:42:11;17.70;;;7.30;;
828;SDS011;396;52.558;13.188;2023-02-13T11:44:39;16.97;;;7.37;;
828;SDS011;396;52.558;13.188;2023-02-13T11:47:07;17.93;;;6.70;;
828;SDS011;396;52.558;13.188;2023-02-13T11:49:36;19.13;;;7.07;;
828;SDS011;396;52.558;13.188;2023-02-13T11:52:04;17.10;;;6.80;;
828;SDS011;396;52.558;13.188;2023-02-13T11:54:32;21.50;;;7.50;;
828;SDS011;396;52.558;13.188;2023-02-13T11:57:01;21.40;;;8.30;;
828;SDS011;396;52.558;13.188;2023-02-13T11:59:30;15.57;;;7.90;;
828;SDS011;396;52.558;13.188;2023-02-13T12:02:02;18.20;;;7.23;;
828;SDS011;396;52.558;13.188;2023-02-13T12:04:40;13.90;;;5.97;;
828;SDS011;396;52.558;13.188;2023-02-13T12:07:11;19.43;;;7.37;;
828;SDS011;396;52.558;13.188;2023-02-13T12:09:41;18.37;;;6.50;;
828;SDS011;396;52.558;13.188;2023-02-13T12:12:10;16.63;;;7.27;;
828;SDS011;396;52.558;13.188;2023-02-13T12:14:44;17.50;;;6.83;;
828;SDS011;396;52.558;13.188;2023-02-13T12:17:11;15.40;;;6.90;;
828;SDS011;396;52.558;13.188;2023-02-13T12:19:43;15.17;;;6.63;;
828;SDS011;396;52.558;13.188;2023-02-13T12:22:16;15.30;;;5.87;;
828;SDS011;396;52.558;13.188;2023-02-13T12:24:59;17.70;;;7.07;;
828;SDS011;396;52.558;13.188;2023-02-13T12:27:43;18.47;;;7.43;;
828;SDS011;396;52.558;13.188;2023-02-13T12:30:31;17.23;;;6.87;;
828;SDS011;396;52.558;13.188;2023-02-13T12:33:26;20.80;;;7.57;;
828;SDS011;396;52.558;13.188;2023-02-13T12:36:07;22.20;;;6.73;;
828;SDS011;396;52.558;13.188;2023-02-13T12:38:46;14.63;;;6.27;;
828;SDS011;396;52.558;13.188;2023-02-13T12:41:25;21.90;;;6.20;;
828;SDS011;396;52.558;13.188;2023-02-13T12:47:07;16.30;;;5.97;;
828;SDS011;396;52.558;13.188;2023-02-13T12:52:50;11.13;;;5.00;;
828;SDS011;396;52.558;13.188;2023-02-13T13:01:32;13.47;;;5.57;;
828;SDS011;396;52.558;13.188;2023-02-13T13:04:19;15.03;;;5.73;;
828;SDS011;396;52.558;13.188;2023-02-13T13:07:04;13.37;;;6.53;;
828;SDS011;396;52.558;13.188;2023-02-13T13:09:48;14.10;;;5.57;;
828;SDS011;396;52.558;13.188;2023-02-13T13:12:27;14.93;;;5.70;;
828;SDS011;396;52.558;13.188;2023-02-13T13:15:04;17.10;;;6.93;;
828;SDS011;396;52.558;13.188;2023-02-13T13:17:49;16.03;;;6.20;;
828;SDS011;396;52.558;13.188;2023-02-13T13:20:34;19.60;;;5.53;;
828;SDS011;396;52.558;13.188;2023-02-13T13:23:10;10.97;;;4.43;;
828;SDS011;396;52.558;13.188;2023-02-13T13:25:44;13.80;;;5.80;;
828;SDS011;396;52.558;13.188;2023-02-13T13:28:22;16.13;;;6.20;;
828;SDS011;396;52.558;13.188;2023-02-13T13:30:52;16.97;;;5.87;;
828;SDS011;396;52.558;13.188;2023-02-13T13:33:19;14.87;;;6.57;;
828;SDS011;396;52.558;13.188;2023-02-13T13:35:51;14.90;;;5.57;;
828;SDS011;396;52.558;13.188;2023-02-13T13:38:24;18.60;;;7.13;;
828;SDS011;396;52.558;13.188;2023-02-13T13:41:06;16.90;;;5.83;;
828;SDS011;396;52.558;13.188;2023-02-13T13:43:39;14.20;;;5.93;;
828;SDS011;396;52.558;13.188;2023-02-13T13:46:23;15.93;;;6.10;;
828;SDS011;396;52.558;13.188;2023-02-13T13:49:09;17.73;;;6.47;;
828;SDS011;396;52.558;13.188;2023-02-13T13:51:45;13.17;;;5.73;;
828;SDS011;396;52.558;13.188;2023-02-13T13:54:23;10.80;;;4.20;;
828;SDS011;396;52.558;13.188;2023-02-13T13:57:10;14.47;;;5.73;;
828;SDS011;396;52.558;13.188;2023-02-13T13:59:59;14.43;;;6.20;;
828;SDS011;396;52.558;13.188;2023-02-13T14:02:39;14.57;;;6.20;;
828;SDS011;396;52.558;13.188;2023-02-13T14:05:19;12.77;;;4.93;;
828;SDS011;396;52.558;13.188;2023-02-13T14:07:49;11.73;;;4.37;;
828;SDS011;396;52.558;13.188;2023-02-13T14:13:33;14.37;;;5.77;;
828;SDS011;396;52.558;13.188;2023-02-13T14:16:01;19.30;;;6.27;;
828;SDS011;396;52.558;13.188;2023-02-13T14:18:29;15.20;;;6.70;;
828;SDS011;396;52.558;13.188;2023-02-13T14:20:57;22.50;;;5.33;;
828;SDS011;396;52.558;13.188;2023-02-13T14:23:29;15.63;;;5.90;;
828;SDS011;396;52.558;13.188;2023-02-13T14:26:18;12.67;;;5.43;;
828;SDS011;396;52.558;13.188;2023-02-13T14:28:56;12.93;;;5.70;;
828;SDS011;396;52.558;13.188;2023-02-13T14:31:26;15.83;;;6.73;;
828;SDS011;396;52.558;13.188;2023-02-13T14:33:56;13.83;;;5.40;;
828;SDS011;396;52.558;13.188;2023-02-13T14:36:26;13.67;;;5.83;;
828;SDS011;396;52.558;13.188;2023-02-13T14:38:57;15.70;;;5.37;;
828;SDS011;396;52.558;13.188;2023-02-13T14:41:55;14.20;;;6.00;;
828;SDS011;396;52.558;13.188;2023-02-13T14:44:25;20.70;;;7.50;;
828;SDS011;396;52.558;13.188;2023-02-13T14:46:58;18.77;;;6.07;;
828;SDS011;396;52.558;13.188;2023-02-13T14:49:28;18.43;;;7.23;;
828;SDS011;396;52.558;13.188;2023-02-13T14:51:57;17.13;;;5.73;;
828;SDS011;396;52.558;13.188;2023-02-13T14:54:28;16.90;;;5.60;;
828;SDS011;396;52.558;13.188;2023-02-13T14:56:59;15.13;;;5.63;;
828;SDS011;396;52.558;13.188;2023-02-13T14:59:34;16.70;;;6.90;;
828;SDS011;396;52.558;13.188;2023-02-13T15:02:06;22.97;;;6.17;;
828;SDS011;396;52.558;13.188;2023-02-13T15:04:41;15.93;;;5.80;;
828;SDS011;396;52.558;13.188;2023-02-13T15:07:12;14.07;;;6.13;;
828;SDS011;396;52.558;13.188;2023-02-13T15:09:43;13.40;;;6.10;;
828;SDS011;396;52.558;13.188;2023-02-13T15:12:23;14.33;;;5.53;;
828;SDS011;396;52.558;13.188;2023-02-13T15:14:52;14.10;;;6.17;;
828;SDS011;396;52.558;13.188;2023-02-13T15:17:20;16.60;;;5.67;;
828;SDS011;396;52.558;13.188;2023-02-13T15:19:50;21.13;;;7.33;;
828;SDS011;396;52.558;13.188;2023-02-13T15:22:19;14.10;;;5.60;;
828;SDS011;396;52.558;13.188;2023-02-13T15:24:49;19.93;;;5.93;;
828;SDS011;396;52.558;13.188;2023-02-13T15:27:17;18.40;;;5.20;;
828;SDS011;396;52.558;13.188;2023-02-13T15:29:53;17.07;;;6.03;;
828;SDS011;396;52.558;13.188;2023-02-13T15:32:25;17.40;;;7.20;;
828;SDS011;396;52.558;13.188;2023-02-13T15:34:53;15.40;;;6.37;;
828;SDS011;396;52.558;13.188;2023-02-13T15:37:20;14.17;;;6.30;;
828;SDS011;396;52.558;13.188;2023-02-13T15:39:48;19.17;;;6.30;;
828;SDS011;396;52.558;13.188;2023-02-13T15:42:15;19.33;;;6.03;;
828;SDS011;396;52.558;13.188;2023-02-13T15:44:42;16.63;;;5.43;;
828;SDS011;396;52.558;13.188;2023-02-13T15:47:16;14.07;;;6.30;;
828;SDS011;396;52.558;13.188;2023-02-13T15:49:47;11.83;;;5.87;;
828;SDS011;396;52.558;13.188;2023-02-13T15:52:17;16.20;;;5.97;;
828;SDS011;396;52.558;13.188;2023-02-13T15:54:47;19.67;;;6.73;;
828;SDS011;396;52.558;13.188;2023-02-13T15:57:16;14.07;;;6.70;;
828;SDS011;396;52.558;13.188;2023-02-13T15:59:43;15.30;;;5.93;;
828;SDS011;396;52.558;13.188;2023-02-13T16:02:11;16.43;;;6.97;;
828;SDS011;396;52.558;13.188;2023-02-13T16:04:43;15.80;;;4.70;;
828;SDS011;396;52.558;13.188;2023-02-13T16:07:11;16.97;;;5.87;;
828;SDS011;396;52.558;13.188;2023-02-13T16:09:40;11.87;;;4.60;;
828;SDS011;396;52.558;13.188;2023-02-13T16:12:14;12.33;;;5.33;;